This is the latest recevied weather packets stored in our database for station/object KA3ZXO. If no packets are shown the sender has not sent any weather packets the latest 10 day(s).
| Time | Temp. | Humidity | Pressure | Rain* | Wind** | Luminosity | Snow |
|---|---|---|---|---|---|---|---|
| 1777331648 | 18.89° C | 52% | 1022.8 hPa | 0 mm | - | 14 W/m² | - |
| 1777331042 | 18.89° C | 48% | 1022.9 hPa | 0 mm | - | 19 W/m² | - |
| 1777330442 | 19.44° C | 45% | 1022.8 hPa | 0 mm | - | 24 W/m² | - |
| 1777329838 | 22.22° C | 41% | 1022.7 hPa | 0 mm | - | 34 W/m² | - |
| 1777329234 | 21.67° C | 39% | 1022.6 hPa | 0 mm | - | 66 W/m² | - |
| 1777328629 | 21.67° C | 40% | 1022.5 hPa | 0 mm | - | 89 W/m² | - |
| 1777328025 | 20.56° C | 42% | 1022.8 hPa | 0 mm | - | 110 W/m² | - |
| 1777327420 | 21.11° C | 38% | 1022.8 hPa | 0 mm | - | 141 W/m² | - |
| 1777326819 | 20.56° C | 39% | 1022.9 hPa | 0 mm | - | 164 W/m² | - |
| 1777326214 | 20° C | 41% | 1022.8 hPa | 0 mm | - | 192 W/m² | - |
| 1777325610 | 20.56° C | 38% | 1022.7 hPa | 0 mm | - | 227 W/m² | - |
| 1777325006 | 21.67° C | 37% | 1023 hPa | 0 mm | - | 246 W/m² | - |
| 1777324405 | 21.11° C | 41% | 1023 hPa | 0 mm | - | 267 W/m² | - |
| 1777323806 | 20° C | 44% | 1023.1 hPa | 0 mm | - | 300 W/m² | - |
| 1777323205 | 21.11° C | 42% | 1022.9 hPa | 0 mm | - | 340 W/m² | - |
| 1777322601 | 21.11° C | 43% | 1023 hPa | 0 mm | - | 379 W/m² | - |
| 1777322000 | 21.11° C | 39% | 1022.9 hPa | 0 mm | - | 347 W/m² | - |
| 1777321399 | 21.67° C | 39% | 1023.1 hPa | 0 mm | - | 343 W/m² | - |
| 1777320794 | 21.67° C | 40% | 1023.3 hPa | 0 mm | - | 457 W/m² | - |
| 1777320194 | 21.11° C | 42% | 1023 hPa | 0 mm | - | 483 W/m² | - |
| 1777319593 | 21.11° C | 41% | 1023.1 hPa | 0 mm | - | 503 W/m² | - |
| 1777318993 | 21.67° C | 41% | 1023.3 hPa | 0 mm | - | 529 W/m² | - |
| 1777318391 | 20.56° C | 42% | 1023.3 hPa | 0 mm | - | 554 W/m² | - |
| 1777317791 | 20.56° C | 40% | 1023.5 hPa | 0 mm | - | 526 W/m² | - |
| 1777317185 | 20° C | 41% | 1023.6 hPa | 0 mm | - | 587 W/m² | - |
* Rain latest hour (hover to see other rain measurements)
** Current wind speed in m/s (hover to see current wind gust speed)